sensor_id;sensor_type;location;lat;lon;timestamp;P1;durP1;ratioP1;P2;durP2;ratioP2
10335;SDS011;5213;53.548;9.930;2023-05-10T00:00:51;5.35;;;3.75;;
10335;SDS011;5213;53.548;9.930;2023-05-10T00:03:17;3.88;;;3.47;;
10335;SDS011;5213;53.548;9.930;2023-05-10T00:05:43;4.25;;;3.85;;
10335;SDS011;5213;53.548;9.930;2023-05-10T00:08:09;5.00;;;3.58;;
10335;SDS011;5213;53.548;9.930;2023-05-10T00:10:35;3.78;;;3.47;;
10335;SDS011;5213;53.548;9.930;2023-05-10T00:13:02;3.88;;;3.50;;
10335;SDS011;5213;53.548;9.930;2023-05-10T00:15:28;5.07;;;3.58;;
10335;SDS011;5213;53.548;9.930;2023-05-10T00:17:55;4.20;;;3.80;;
10335;SDS011;5213;53.548;9.930;2023-05-10T00:20:21;4.15;;;3.78;;
10335;SDS011;5213;53.548;9.930;2023-05-10T00:22:47;4.43;;;3.83;;
10335;SDS011;5213;53.548;9.930;2023-05-10T00:25:13;4.45;;;3.72;;
10335;SDS011;5213;53.548;9.930;2023-05-10T00:27:39;4.55;;;3.60;;
10335;SDS011;5213;53.548;9.930;2023-05-10T00:30:06;5.95;;;4.10;;
10335;SDS011;5213;53.548;9.930;2023-05-10T00:32:32;4.20;;;3.85;;
10335;SDS011;5213;53.548;9.930;2023-05-10T00:34:58;4.00;;;3.70;;
10335;SDS011;5213;53.548;9.930;2023-05-10T00:37:24;6.75;;;3.75;;
10335;SDS011;5213;53.548;9.930;2023-05-10T00:39:50;6.30;;;4.40;;
10335;SDS011;5213;53.548;9.930;2023-05-10T00:42:16;4.30;;;4.00;;
10335;SDS011;5213;53.548;9.930;2023-05-10T00:44:42;5.40;;;4.00;;
10335;SDS011;5213;53.548;9.930;2023-05-10T00:47:08;5.00;;;3.92;;
10335;SDS011;5213;53.548;9.930;2023-05-10T00:49:34;4.63;;;4.10;;
10335;SDS011;5213;53.548;9.930;2023-05-10T00:52:01;4.15;;;3.80;;
10335;SDS011;5213;53.548;9.930;2023-05-10T00:54:28;4.97;;;3.95;;
10335;SDS011;5213;53.548;9.930;2023-05-10T00:56:54;5.72;;;4.20;;
10335;SDS011;5213;53.548;9.930;2023-05-10T00:59:21;4.90;;;3.80;;
10335;SDS011;5213;53.548;9.930;2023-05-10T01:01:48;5.53;;;4.10;;
10335;SDS011;5213;53.548;9.930;2023-05-10T01:04:14;4.30;;;4.00;;
10335;SDS011;5213;53.548;9.930;2023-05-10T01:06:40;5.57;;;4.38;;
10335;SDS011;5213;53.548;9.930;2023-05-10T01:09:06;4.75;;;4.00;;
10335;SDS011;5213;53.548;9.930;2023-05-10T01:11:33;5.15;;;4.32;;
10335;SDS011;5213;53.548;9.930;2023-05-10T01:14:00;6.47;;;4.07;;
10335;SDS011;5213;53.548;9.930;2023-05-10T01:16:27;7.80;;;4.47;;
10335;SDS011;5213;53.548;9.930;2023-05-10T01:18:53;4.57;;;4.20;;
10335;SDS011;5213;53.548;9.930;2023-05-10T01:26:23;4.82;;;4.18;;
10335;SDS011;5213;53.548;9.930;2023-05-10T01:34:07;5.75;;;4.45;;
10335;SDS011;5213;53.548;9.930;2023-05-10T01:36:36;5.53;;;4.40;;
10335;SDS011;5213;53.548;9.930;2023-05-10T01:41:41;4.88;;;4.47;;
10335;SDS011;5213;53.548;9.930;2023-05-10T01:46:35;5.13;;;4.63;;
10335;SDS011;5213;53.548;9.930;2023-05-10T01:49:02;4.97;;;4.38;;
10335;SDS011;5213;53.548;9.930;2023-05-10T01:51:31;4.95;;;4.45;;
10335;SDS011;5213;53.548;9.930;2023-05-10T01:54:02;4.55;;;4.15;;
10335;SDS011;5213;53.548;9.930;2023-05-10T01:56:30;4.20;;;3.85;;
10335;SDS011;5213;53.548;9.930;2023-05-10T01:58:57;5.18;;;4.00;;
10335;SDS011;5213;53.548;9.930;2023-05-10T02:01:24;4.40;;;4.00;;
10335;SDS011;5213;53.548;9.930;2023-05-10T02:03:51;4.45;;;4.05;;
10335;SDS011;5213;53.548;9.930;2023-05-10T02:06:18;4.80;;;4.40;;
10335;SDS011;5213;53.548;9.930;2023-05-10T02:08:44;5.90;;;4.40;;
10335;SDS011;5213;53.548;9.930;2023-05-10T02:11:12;5.68;;;4.93;;
10335;SDS011;5213;53.548;9.930;2023-05-10T02:13:39;4.70;;;4.30;;
10335;SDS011;5213;53.548;9.930;2023-05-10T02:16:05;4.78;;;4.30;;
10335;SDS011;5213;53.548;9.930;2023-05-10T02:18:31;6.40;;;4.57;;
10335;SDS011;5213;53.548;9.930;2023-05-10T02:20:58;4.93;;;4.45;;
10335;SDS011;5213;53.548;9.930;2023-05-10T02:23:25;6.47;;;4.57;;
10335;SDS011;5213;53.548;9.930;2023-05-10T02:25:51;4.95;;;4.45;;
10335;SDS011;5213;53.548;9.930;2023-05-10T02:28:18;4.97;;;4.57;;
10335;SDS011;5213;53.548;9.930;2023-05-10T02:30:44;4.90;;;4.40;;
10335;SDS011;5213;53.548;9.930;2023-05-10T02:33:11;8.15;;;4.65;;
10335;SDS011;5213;53.548;9.930;2023-05-10T02:35:37;4.75;;;4.35;;
10335;SDS011;5213;53.548;9.930;2023-05-10T02:38:04;5.60;;;5.00;;
10335;SDS011;5213;53.548;9.930;2023-05-10T02:40:30;6.40;;;4.40;;
10335;SDS011;5213;53.548;9.930;2023-05-10T02:42:57;5.35;;;4.70;;
10335;SDS011;5213;53.548;9.930;2023-05-10T02:45:26;8.93;;;5.03;;
10335;SDS011;5213;53.548;9.930;2023-05-10T02:47:53;4.63;;;4.25;;
10335;SDS011;5213;53.548;9.930;2023-05-10T02:50:19;5.00;;;4.60;;
10335;SDS011;5213;53.548;9.930;2023-05-10T02:52:46;7.22;;;4.70;;
10335;SDS011;5213;53.548;9.930;2023-05-10T02:55:14;7.03;;;4.57;;
10335;SDS011;5213;53.548;9.930;2023-05-10T02:58:02;5.35;;;4.80;;
10335;SDS011;5213;53.548;9.930;2023-05-10T03:00:27;4.70;;;4.18;;
10335;SDS011;5213;53.548;9.930;2023-05-10T03:02:53;5.40;;;4.93;;
10335;SDS011;5213;53.548;9.930;2023-05-10T03:05:20;4.75;;;4.30;;
10335;SDS011;5213;53.548;9.930;2023-05-10T03:07:46;4.78;;;4.38;;
10335;SDS011;5213;53.548;9.930;2023-05-10T03:10:12;5.93;;;4.30;;
10335;SDS011;5213;53.548;9.930;2023-05-10T03:20:42;6.32;;;4.53;;
10335;SDS011;5213;53.548;9.930;2023-05-10T03:23:11;5.20;;;4.70;;
10335;SDS011;5213;53.548;9.930;2023-05-10T03:25:37;4.65;;;4.00;;
10335;SDS011;5213;53.548;9.930;2023-05-10T03:28:05;6.82;;;4.70;;
10335;SDS011;5213;53.548;9.930;2023-05-10T03:30:31;7.60;;;4.53;;
10335;SDS011;5213;53.548;9.930;2023-05-10T03:32:58;5.25;;;4.28;;
10335;SDS011;5213;53.548;9.930;2023-05-10T03:35:29;4.97;;;4.55;;
10335;SDS011;5213;53.548;9.930;2023-05-10T03:37:55;4.68;;;4.28;;
10335;SDS011;5213;53.548;9.930;2023-05-10T03:40:21;6.25;;;4.88;;
10335;SDS011;5213;53.548;9.930;2023-05-10T03:42:48;5.50;;;4.65;;
10335;SDS011;5213;53.548;9.930;2023-05-10T03:45:13;5.50;;;5.00;;
10335;SDS011;5213;53.548;9.930;2023-05-10T03:47:40;7.00;;;4.65;;
10335;SDS011;5213;53.548;9.930;2023-05-10T03:50:06;5.63;;;4.65;;
10335;SDS011;5213;53.548;9.930;2023-05-10T03:52:32;5.60;;;4.80;;
10335;SDS011;5213;53.548;9.930;2023-05-10T03:54:58;4.78;;;4.32;;
10335;SDS011;5213;53.548;9.930;2023-05-10T03:57:24;5.13;;;4.63;;
10335;SDS011;5213;53.548;9.930;2023-05-10T03:59:50;5.57;;;4.30;;
10335;SDS011;5213;53.548;9.930;2023-05-10T04:02:16;9.27;;;4.40;;
10335;SDS011;5213;53.548;9.930;2023-05-10T04:04:42;8.00;;;4.75;;
10335;SDS011;5213;53.548;9.930;2023-05-10T04:07:08;7.25;;;4.40;;
10335;SDS011;5213;53.548;9.930;2023-05-10T04:09:35;5.43;;;4.80;;
10335;SDS011;5213;53.548;9.930;2023-05-10T04:12:01;4.57;;;4.18;;
10335;SDS011;5213;53.548;9.930;2023-05-10T04:14:27;5.43;;;4.88;;
10335;SDS011;5213;53.548;9.930;2023-05-10T04:16:53;6.22;;;4.90;;
10335;SDS011;5213;53.548;9.930;2023-05-10T04:19:20;5.10;;;4.35;;
10335;SDS011;5213;53.548;9.930;2023-05-10T04:21:46;6.60;;;4.57;;
10335;SDS011;5213;53.548;9.930;2023-05-10T04:24:12;5.47;;;4.65;;
10335;SDS011;5213;53.548;9.930;2023-05-10T04:26:38;5.25;;;4.45;;
10335;SDS011;5213;53.548;9.930;2023-05-10T04:29:04;5.40;;;4.10;;
10335;SDS011;5213;53.548;9.930;2023-05-10T04:31:30;4.97;;;4.55;;
10335;SDS011;5213;53.548;9.930;2023-05-10T04:33:56;5.07;;;4.40;;
10335;SDS011;5213;53.548;9.930;2023-05-10T04:36:22;4.95;;;4.45;;
10335;SDS011;5213;53.548;9.930;2023-05-10T04:38:48;4.57;;;4.18;;
10335;SDS011;5213;53.548;9.930;2023-05-10T04:41:14;5.10;;;4.53;;
10335;SDS011;5213;53.548;9.930;2023-05-10T04:43:40;5.43;;;4.72;;
10335;SDS011;5213;53.548;9.930;2023-05-10T04:46:06;6.93;;;4.78;;
10335;SDS011;5213;53.548;9.930;2023-05-10T04:48:32;5.65;;;4.57;;
10335;SDS011;5213;53.548;9.930;2023-05-10T04:50:59;6.07;;;4.70;;
10335;SDS011;5213;53.548;9.930;2023-05-10T04:53:25;5.13;;;4.57;;
10335;SDS011;5213;53.548;9.930;2023-05-10T04:55:51;4.93;;;4.32;;
10335;SDS011;5213;53.548;9.930;2023-05-10T04:58:17;5.45;;;4.38;;
10335;SDS011;5213;53.548;9.930;2023-05-10T05:00:43;4.95;;;4.10;;
10335;SDS011;5213;53.548;9.930;2023-05-10T05:03:09;5.07;;;4.38;;
10335;SDS011;5213;53.548;9.930;2023-05-10T05:05:35;5.47;;;4.53;;
10335;SDS011;5213;53.548;9.930;2023-05-10T05:08:01;4.75;;;4.43;;
10335;SDS011;5213;53.548;9.930;2023-05-10T05:10:27;5.47;;;4.45;;
10335;SDS011;5213;53.548;9.930;2023-05-10T05:12:53;5.15;;;4.65;;
10335;SDS011;5213;53.548;9.930;2023-05-10T05:15:19;4.72;;;4.32;;
10335;SDS011;5213;53.548;9.930;2023-05-10T05:17:55;4.97;;;4.47;;
10335;SDS011;5213;53.548;9.930;2023-05-10T05:20:25;5.30;;;4.80;;
10335;SDS011;5213;53.548;9.930;2023-05-10T05:22:51;7.07;;;4.80;;
10335;SDS011;5213;53.548;9.930;2023-05-10T05:25:17;4.60;;;4.20;;
10335;SDS011;5213;53.548;9.930;2023-05-10T05:27:43;4.85;;;4.40;;
10335;SDS011;5213;53.548;9.930;2023-05-10T05:30:09;5.68;;;4.47;;
10335;SDS011;5213;53.548;9.930;2023-05-10T05:32:36;5.03;;;4.63;;
10335;SDS011;5213;53.548;9.930;2023-05-10T05:35:02;4.93;;;4.32;;
10335;SDS011;5213;53.548;9.930;2023-05-10T05:37:28;6.15;;;4.60;;
10335;SDS011;5213;53.548;9.930;2023-05-10T05:39:54;5.40;;;4.25;;
10335;SDS011;5213;53.548;9.930;2023-05-10T05:42:20;5.18;;;4.68;;
10335;SDS011;5213;53.548;9.930;2023-05-10T05:44:46;7.00;;;4.00;;
10335;SDS011;5213;53.548;9.930;2023-05-10T05:47:12;5.68;;;4.50;;
10335;SDS011;5213;53.548;9.930;2023-05-10T05:49:38;7.22;;;4.22;;
10335;SDS011;5213;53.548;9.930;2023-05-10T05:52:04;4.63;;;4.28;;
10335;SDS011;5213;53.548;9.930;2023-05-10T05:54:31;7.05;;;4.40;;
10335;SDS011;5213;53.548;9.930;2023-05-10T05:56:57;5.70;;;4.35;;
10335;SDS011;5213;53.548;9.930;2023-05-10T05:59:24;5.65;;;4.60;;
10335;SDS011;5213;53.548;9.930;2023-05-10T06:01:50;8.27;;;4.50;;
10335;SDS011;5213;53.548;9.930;2023-05-10T06:04:16;8.35;;;4.38;;
10335;SDS011;5213;53.548;9.930;2023-05-10T06:06:42;4.63;;;4.28;;
10335;SDS011;5213;53.548;9.930;2023-05-10T06:09:08;4.90;;;4.43;;
10335;SDS011;5213;53.548;9.930;2023-05-10T06:11:35;5.15;;;4.72;;
10335;SDS011;5213;53.548;9.930;2023-05-10T06:14:01;6.53;;;4.80;;
10335;SDS011;5213;53.548;9.930;2023-05-10T06:16:28;4.30;;;4.00;;
10335;SDS011;5213;53.548;9.930;2023-05-10T06:18:54;5.30;;;4.55;;
10335;SDS011;5213;53.548;9.930;2023-05-10T06:21:20;5.35;;;4.85;;
10335;SDS011;5213;53.548;9.930;2023-05-10T06:23:46;5.78;;;4.60;;
10335;SDS011;5213;53.548;9.930;2023-05-10T06:26:12;6.07;;;4.50;;
10335;SDS011;5213;53.548;9.930;2023-05-10T06:28:39;9.90;;;4.97;;
10335;SDS011;5213;53.548;9.930;2023-05-10T06:31:05;5.15;;;4.65;;
10335;SDS011;5213;53.548;9.930;2023-05-10T06:33:31;7.97;;;4.60;;
10335;SDS011;5213;53.548;9.930;2023-05-10T06:35:57;4.55;;;4.15;;
10335;SDS011;5213;53.548;9.930;2023-05-10T06:38:23;7.90;;;4.40;;
10335;SDS011;5213;53.548;9.930;2023-05-10T06:40:49;4.43;;;4.13;;
10335;SDS011;5213;53.548;9.930;2023-05-10T06:43:16;5.10;;;4.60;;
10335;SDS011;5213;53.548;9.930;2023-05-10T06:45:42;5.38;;;4.88;;
10335;SDS011;5213;53.548;9.930;2023-05-10T06:48:08;6.43;;;4.50;;
10335;SDS011;5213;53.548;9.930;2023-05-10T06:50:34;6.22;;;4.80;;
10335;SDS011;5213;53.548;9.930;2023-05-10T06:53:00;5.95;;;5.15;;
10335;SDS011;5213;53.548;9.930;2023-05-10T06:55:29;6.82;;;4.60;;
10335;SDS011;5213;53.548;9.930;2023-05-10T06:57:55;4.85;;;4.40;;
10335;SDS011;5213;53.548;9.930;2023-05-10T07:00:21;6.40;;;5.00;;
10335;SDS011;5213;53.548;9.930;2023-05-10T07:02:47;7.93;;;5.10;;
10335;SDS011;5213;53.548;9.930;2023-05-10T07:05:13;6.53;;;5.00;;
10335;SDS011;5213;53.548;9.930;2023-05-10T07:07:40;8.88;;;5.63;;
10335;SDS011;5213;53.548;9.930;2023-05-10T07:10:06;7.18;;;5.07;;
10335;SDS011;5213;53.548;9.930;2023-05-10T07:12:32;5.13;;;4.70;;
10335;SDS011;5213;53.548;9.930;2023-05-10T07:14:58;5.13;;;4.57;;
10335;SDS011;5213;53.548;9.930;2023-05-10T07:17:24;5.43;;;4.93;;
10335;SDS011;5213;53.548;9.930;2023-05-10T07:19:50;4.43;;;4.07;;
10335;SDS011;5213;53.548;9.930;2023-05-10T07:22:16;5.28;;;4.35;;
10335;SDS011;5213;53.548;9.930;2023-05-10T07:24:42;4.32;;;3.92;;
10335;SDS011;5213;53.548;9.930;2023-05-10T07:27:09;7.82;;;4.55;;
10335;SDS011;5213;53.548;9.930;2023-05-10T07:29:35;5.05;;;4.55;;
10335;SDS011;5213;53.548;9.930;2023-05-10T07:32:02;5.85;;;4.35;;
10335;SDS011;5213;53.548;9.930;2023-05-10T07:34:28;7.88;;;4.38;;
10335;SDS011;5213;53.548;9.930;2023-05-10T07:36:55;5.57;;;4.30;;
10335;SDS011;5213;53.548;9.930;2023-05-10T07:39:21;4.15;;;3.83;;
10335;SDS011;5213;53.548;9.930;2023-05-10T07:41:47;5.78;;;4.53;;
10335;SDS011;5213;53.548;9.930;2023-05-10T07:44:13;4.60;;;4.20;;
10335;SDS011;5213;53.548;9.930;2023-05-10T07:46:39;7.00;;;3.90;;
10335;SDS011;5213;53.548;9.930;2023-05-10T07:49:05;8.20;;;4.00;;
10335;SDS011;5213;53.548;9.930;2023-05-10T07:51:31;4.60;;;4.30;;
10335;SDS011;5213;53.548;9.930;2023-05-10T07:53:57;4.93;;;3.92;;
10335;SDS011;5213;53.548;9.930;2023-05-10T07:58:54;5.22;;;4.38;;
10335;SDS011;5213;53.548;9.930;2023-05-10T08:01:20;7.45;;;4.57;;
10335;SDS011;5213;53.548;9.930;2023-05-10T08:03:46;9.18;;;4.85;;
10335;SDS011;5213;53.548;9.930;2023-05-10T08:06:13;6.15;;;4.20;;
10335;SDS011;5213;53.548;9.930;2023-05-10T08:08:40;5.05;;;4.45;;
10335;SDS011;5213;53.548;9.930;2023-05-10T08:11:06;5.43;;;4.10;;
10335;SDS011;5213;53.548;9.930;2023-05-10T08:13:32;7.28;;;4.20;;
10335;SDS011;5213;53.548;9.930;2023-05-10T08:15:58;6.72;;;4.45;;
10335;SDS011;5213;53.548;9.930;2023-05-10T08:18:25;8.00;;;4.00;;
10335;SDS011;5213;53.548;9.930;2023-05-10T08:20:51;6.95;;;4.50;;
10335;SDS011;5213;53.548;9.930;2023-05-10T08:23:17;6.80;;;4.07;;
10335;SDS011;5213;53.548;9.930;2023-05-10T08:25:43;5.57;;;4.53;;
10335;SDS011;5213;53.548;9.930;2023-05-10T08:28:09;4.88;;;4.07;;
10335;SDS011;5213;53.548;9.930;2023-05-10T08:30:35;6.40;;;4.63;;
10335;SDS011;5213;53.548;9.930;2023-05-10T08:33:01;4.75;;;4.10;;
10335;SDS011;5213;53.548;9.930;2023-05-10T08:35:27;4.50;;;4.10;;
10335;SDS011;5213;53.548;9.930;2023-05-10T08:37:53;9.60;;;4.65;;
10335;SDS011;5213;53.548;9.930;2023-05-10T08:40:19;4.55;;;4.15;;
10335;SDS011;5213;53.548;9.930;2023-05-10T08:42:51;4.75;;;4.32;;
10335;SDS011;5213;53.548;9.930;2023-05-10T08:45:19;7.07;;;4.00;;
10335;SDS011;5213;53.548;9.930;2023-05-10T08:47:45;6.43;;;4.45;;
10335;SDS011;5213;53.548;9.930;2023-05-10T08:50:12;5.05;;;4.47;;
10335;SDS011;5213;53.548;9.930;2023-05-10T08:52:38;5.18;;;4.60;;
10335;SDS011;5213;53.548;9.930;2023-05-10T08:55:06;5.45;;;4.43;;
10335;SDS011;5213;53.548;9.930;2023-05-10T08:57:32;4.93;;;4.22;;
10335;SDS011;5213;53.548;9.930;2023-05-10T08:59:59;4.95;;;4.43;;
10335;SDS011;5213;53.548;9.930;2023-05-10T09:02:26;6.55;;;4.80;;
10335;SDS011;5213;53.548;9.930;2023-05-10T09:04:52;7.20;;;5.00;;
10335;SDS011;5213;53.548;9.930;2023-05-10T09:07:18;5.70;;;4.60;;
10335;SDS011;5213;53.548;9.930;2023-05-10T09:09:44;5.13;;;4.47;;
10335;SDS011;5213;53.548;9.930;2023-05-10T09:12:12;6.32;;;4.63;;
10335;SDS011;5213;53.548;9.930;2023-05-10T09:14:40;7.03;;;5.25;;
10335;SDS011;5213;53.548;9.930;2023-05-10T09:17:07;8.77;;;4.85;;
10335;SDS011;5213;53.548;9.930;2023-05-10T09:19:33;6.15;;;4.50;;
10335;SDS011;5213;53.548;9.930;2023-05-10T09:21:59;5.80;;;5.30;;
10335;SDS011;5213;53.548;9.930;2023-05-10T09:24:27;6.43;;;5.38;;
10335;SDS011;5213;53.548;9.930;2023-05-10T09:26:53;6.55;;;5.00;;
10335;SDS011;5213;53.548;9.930;2023-05-10T09:29:19;9.32;;;5.30;;
10335;SDS011;5213;53.548;9.930;2023-05-10T09:31:47;7.25;;;5.38;;
10335;SDS011;5213;53.548;9.930;2023-05-10T09:34:16;5.82;;;4.78;;
10335;SDS011;5213;53.548;9.930;2023-05-10T09:36:56;7.05;;;4.88;;
10335;SDS011;5213;53.548;9.930;2023-05-10T09:39:32;5.57;;;4.53;;
10335;SDS011;5213;53.548;9.930;2023-05-10T09:41:59;5.47;;;4.80;;
10335;SDS011;5213;53.548;9.930;2023-05-10T09:44:26;5.68;;;5.22;;
10335;SDS011;5213;53.548;9.930;2023-05-10T09:46:52;5.50;;;5.00;;
10335;SDS011;5213;53.548;9.930;2023-05-10T09:49:18;6.93;;;5.50;;
10335;SDS011;5213;53.548;9.930;2023-05-10T09:51:45;6.85;;;5.30;;
10335;SDS011;5213;53.548;9.930;2023-05-10T09:54:12;7.82;;;5.32;;
10335;SDS011;5213;53.548;9.930;2023-05-10T09:56:38;9.80;;;5.57;;
10335;SDS011;5213;53.548;9.930;2023-05-10T09:59:06;11.50;;;5.97;;
10335;SDS011;5213;53.548;9.930;2023-05-10T10:01:32;6.00;;;5.40;;
10335;SDS011;5213;53.548;9.930;2023-05-10T10:03:58;7.43;;;5.95;;
10335;SDS011;5213;53.548;9.930;2023-05-10T10:06:25;7.15;;;5.63;;
10335;SDS011;5213;53.548;9.930;2023-05-10T10:08:51;9.68;;;6.50;;
10335;SDS011;5213;53.548;9.930;2023-05-10T10:11:18;7.90;;;6.40;;
10335;SDS011;5213;53.548;9.930;2023-05-10T10:13:44;8.15;;;6.45;;
10335;SDS011;5213;53.548;9.930;2023-05-10T10:16:10;9.80;;;6.55;;
10335;SDS011;5213;53.548;9.930;2023-05-10T10:18:36;7.35;;;6.32;;
10335;SDS011;5213;53.548;9.930;2023-05-10T10:21:06;13.95;;;7.55;;
10335;SDS011;5213;53.548;9.930;2023-05-10T10:23:34;7.63;;;6.55;;
10335;SDS011;5213;53.548;9.930;2023-05-10T10:26:01;8.25;;;7.53;;
10335;SDS011;5213;53.548;9.930;2023-05-10T10:30:57;8.55;;;6.72;;
10335;SDS011;5213;53.548;9.930;2023-05-10T10:36:11;9.02;;;6.50;;
10335;SDS011;5213;53.548;9.930;2023-05-10T10:41:32;7.45;;;6.75;;
10335;SDS011;5213;53.548;9.930;2023-05-10T10:49:30;10.48;;;7.38;;
10335;SDS011;5213;53.548;9.930;2023-05-10T10:52:13;8.00;;;6.90;;
10335;SDS011;5213;53.548;9.930;2023-05-10T10:54:58;8.27;;;7.40;;
10335;SDS011;5213;53.548;9.930;2023-05-10T10:57:31;7.78;;;6.95;;
10335;SDS011;5213;53.548;9.930;2023-05-10T11:07:56;7.78;;;6.82;;
10335;SDS011;5213;53.548;9.930;2023-05-10T11:10:22;7.05;;;6.45;;
10335;SDS011;5213;53.548;9.930;2023-05-10T11:12:59;7.53;;;6.80;;
10335;SDS011;5213;53.548;9.930;2023-05-10T11:15:29;10.40;;;7.97;;
10335;SDS011;5213;53.548;9.930;2023-05-10T11:17:55;8.85;;;7.95;;
10335;SDS011;5213;53.548;9.930;2023-05-10T11:20:21;8.27;;;7.47;;
10335;SDS011;5213;53.548;9.930;2023-05-10T11:22:53;9.30;;;8.40;;
10335;SDS011;5213;53.548;9.930;2023-05-10T11:25:19;8.63;;;7.82;;
10335;SDS011;5213;53.548;9.930;2023-05-10T11:27:47;8.68;;;7.55;;
10335;SDS011;5213;53.548;9.930;2023-05-10T11:30:14;11.05;;;8.00;;
10335;SDS011;5213;53.548;9.930;2023-05-10T11:32:40;9.43;;;8.40;;
10335;SDS011;5213;53.548;9.930;2023-05-10T11:35:09;9.43;;;8.55;;
10335;SDS011;5213;53.548;9.930;2023-05-10T11:37:36;9.50;;;8.60;;
10335;SDS011;5213;53.548;9.930;2023-05-10T11:40:03;9.75;;;8.73;;
10335;SDS011;5213;53.548;9.930;2023-05-10T11:42:29;8.77;;;7.97;;
10335;SDS011;5213;53.548;9.930;2023-05-10T11:44:55;8.68;;;7.88;;
10335;SDS011;5213;53.548;9.930;2023-05-10T11:47:22;8.95;;;8.15;;
10335;SDS011;5213;53.548;9.930;2023-05-10T11:49:48;9.25;;;8.25;;
10335;SDS011;5213;53.548;9.930;2023-05-10T11:52:14;10.82;;;8.10;;
10335;SDS011;5213;53.548;9.930;2023-05-10T11:54:53;16.85;;;9.38;;
10335;SDS011;5213;53.548;9.930;2023-05-10T11:57:20;14.73;;;9.57;;
10335;SDS011;5213;53.548;9.930;2023-05-10T11:59:46;11.60;;;8.50;;
10335;SDS011;5213;53.548;9.930;2023-05-10T12:02:16;8.70;;;7.90;;
10335;SDS011;5213;53.548;9.930;2023-05-10T12:04:41;9.73;;;7.63;;
10335;SDS011;5213;53.548;9.930;2023-05-10T12:07:08;11.85;;;8.50;;
10335;SDS011;5213;53.548;9.930;2023-05-10T12:09:34;8.77;;;7.72;;
10335;SDS011;5213;53.548;9.930;2023-05-10T12:12:00;8.95;;;8.02;;
10335;SDS011;5213;53.548;9.930;2023-05-10T12:14:27;9.75;;;8.30;;
10335;SDS011;5213;53.548;9.930;2023-05-10T12:16:58;8.20;;;7.55;;
10335;SDS011;5213;53.548;9.930;2023-05-10T12:19:24;8.50;;;7.63;;
10335;SDS011;5213;53.548;9.930;2023-05-10T12:21:50;7.50;;;6.80;;
10335;SDS011;5213;53.548;9.930;2023-05-10T12:24:16;11.65;;;7.13;;
10335;SDS011;5213;53.548;9.930;2023-05-10T12:26:42;6.75;;;6.15;;
10335;SDS011;5213;53.548;9.930;2023-05-10T12:29:15;7.00;;;6.30;;
10335;SDS011;5213;53.548;9.930;2023-05-10T12:31:48;6.22;;;5.63;;
10335;SDS011;5213;53.548;9.930;2023-05-10T12:36:54;7.15;;;6.25;;
10335;SDS011;5213;53.548;9.930;2023-05-10T12:39:20;6.68;;;5.53;;
10335;SDS011;5213;53.548;9.930;2023-05-10T12:41:46;5.50;;;5.00;;
10335;SDS011;5213;53.548;9.930;2023-05-10T12:44:12;5.93;;;5.30;;
10335;SDS011;5213;53.548;9.930;2023-05-10T12:46:38;5.80;;;5.30;;
10335;SDS011;5213;53.548;9.930;2023-05-10T12:49:04;6.88;;;6.18;;
10335;SDS011;5213;53.548;9.930;2023-05-10T12:51:30;6.60;;;6.00;;
10335;SDS011;5213;53.548;9.930;2023-05-10T12:53:56;6.25;;;5.65;;
10335;SDS011;5213;53.548;9.930;2023-05-10T12:56:22;6.07;;;5.57;;
10335;SDS011;5213;53.548;9.930;2023-05-10T12:58:48;6.88;;;5.40;;
10335;SDS011;5213;53.548;9.930;2023-05-10T13:01:14;5.55;;;5.00;;
10335;SDS011;5213;53.548;9.930;2023-05-10T13:03:40;6.43;;;5.93;;
10335;SDS011;5213;53.548;9.930;2023-05-10T13:06:08;6.20;;;5.70;;
10335;SDS011;5213;53.548;9.930;2023-05-10T13:08:34;6.93;;;5.72;;
10335;SDS011;5213;53.548;9.930;2023-05-10T13:11:00;6.47;;;5.97;;
10335;SDS011;5213;53.548;9.930;2023-05-10T13:13:26;6.43;;;5.80;;
10335;SDS011;5213;53.548;9.930;2023-05-10T13:15:52;6.18;;;5.63;;
10335;SDS011;5213;53.548;9.930;2023-05-10T13:18:18;7.45;;;5.50;;
10335;SDS011;5213;53.548;9.930;2023-05-10T13:20:44;6.57;;;5.63;;
10335;SDS011;5213;53.548;9.930;2023-05-10T13:23:10;6.18;;;5.45;;
10335;SDS011;5213;53.548;9.930;2023-05-10T13:25:37;6.32;;;5.70;;
10335;SDS011;5213;53.548;9.930;2023-05-10T13:28:04;6.05;;;5.53;;
10335;SDS011;5213;53.548;9.930;2023-05-10T13:30:29;5.82;;;5.32;;
10335;SDS011;5213;53.548;9.930;2023-05-10T13:32:56;7.35;;;5.50;;
10335;SDS011;5213;53.548;9.930;2023-05-10T13:35:22;6.07;;;5.57;;
10335;SDS011;5213;53.548;9.930;2023-05-10T13:37:48;6.65;;;6.07;;
10335;SDS011;5213;53.548;9.930;2023-05-10T13:40:14;6.68;;;6.00;;
10335;SDS011;5213;53.548;9.930;2023-05-10T13:42:40;6.20;;;5.80;;
10335;SDS011;5213;53.548;9.930;2023-05-10T13:45:06;6.38;;;5.88;;
10335;SDS011;5213;53.548;9.930;2023-05-10T13:47:32;6.95;;;6.45;;
10335;SDS011;5213;53.548;9.930;2023-05-10T13:49:58;5.95;;;5.40;;
10335;SDS011;5213;53.548;9.930;2023-05-10T13:52:26;6.40;;;5.80;;
10335;SDS011;5213;53.548;9.930;2023-05-10T13:54:52;7.30;;;6.70;;
10335;SDS011;5213;53.548;9.930;2023-05-10T13:57:20;5.97;;;5.57;;
10335;SDS011;5213;53.548;9.930;2023-05-10T13:59:46;6.35;;;5.85;;
10335;SDS011;5213;53.548;9.930;2023-05-10T14:02:12;6.95;;;5.93;;
10335;SDS011;5213;53.548;9.930;2023-05-10T14:04:38;6.20;;;5.70;;
10335;SDS011;5213;53.548;9.930;2023-05-10T14:07:04;6.82;;;6.22;;
10335;SDS011;5213;53.548;9.930;2023-05-10T14:09:30;6.43;;;5.93;;
10335;SDS011;5213;53.548;9.930;2023-05-10T14:11:56;6.47;;;5.88;;
10335;SDS011;5213;53.548;9.930;2023-05-10T14:14:23;6.20;;;5.80;;
10335;SDS011;5213;53.548;9.930;2023-05-10T14:16:49;7.53;;;6.18;;
10335;SDS011;5213;53.548;9.930;2023-05-10T14:19:15;6.93;;;6.30;;
10335;SDS011;5213;53.548;9.930;2023-05-10T14:21:42;6.15;;;5.55;;
10335;SDS011;5213;53.548;9.930;2023-05-10T14:24:08;7.00;;;6.30;;
10335;SDS011;5213;53.548;9.930;2023-05-10T14:26:34;6.28;;;5.80;;
10335;SDS011;5213;53.548;9.930;2023-05-10T14:29:00;6.43;;;5.88;;
10335;SDS011;5213;53.548;9.930;2023-05-10T14:31:27;6.30;;;5.78;;
10335;SDS011;5213;53.548;9.930;2023-05-10T14:33:55;6.45;;;5.95;;
10335;SDS011;5213;53.548;9.930;2023-05-10T14:36:21;5.88;;;5.38;;
10335;SDS011;5213;53.548;9.930;2023-05-10T14:38:47;6.90;;;5.90;;
10335;SDS011;5213;53.548;9.930;2023-05-10T14:41:13;6.10;;;5.60;;
10335;SDS011;5213;53.548;9.930;2023-05-10T14:43:40;5.93;;;5.53;;
10335;SDS011;5213;53.548;9.930;2023-05-10T14:46:06;6.25;;;5.85;;
10335;SDS011;5213;53.548;9.930;2023-05-10T14:48:32;7.40;;;5.80;;
10335;SDS011;5213;53.548;9.930;2023-05-10T14:50:58;7.38;;;6.75;;
10335;SDS011;5213;53.548;9.930;2023-05-10T14:53:24;7.00;;;6.40;;
10335;SDS011;5213;53.548;9.930;2023-05-10T14:55:50;6.80;;;6.20;;
10335;SDS011;5213;53.548;9.930;2023-05-10T14:58:16;6.90;;;6.30;;
10335;SDS011;5213;53.548;9.930;2023-05-10T15:00:42;8.45;;;7.75;;
10335;SDS011;5213;53.548;9.930;2023-05-10T15:03:08;7.10;;;6.50;;
10335;SDS011;5213;53.548;9.930;2023-05-10T15:05:34;7.32;;;6.60;;
10335;SDS011;5213;53.548;9.930;2023-05-10T15:08:02;7.20;;;6.55;;
10335;SDS011;5213;53.548;9.930;2023-05-10T15:10:29;7.45;;;6.63;;
10335;SDS011;5213;53.548;9.930;2023-05-10T15:12:55;7.20;;;6.50;;
10335;SDS011;5213;53.548;9.930;2023-05-10T15:15:21;6.60;;;6.10;;
10335;SDS011;5213;53.548;9.930;2023-05-10T15:17:47;6.78;;;6.20;;
10335;SDS011;5213;53.548;9.930;2023-05-10T15:20:13;6.55;;;6.05;;
10335;SDS011;5213;53.548;9.930;2023-05-10T15:22:40;6.55;;;6.00;;
10335;SDS011;5213;53.548;9.930;2023-05-10T15:25:06;6.22;;;5.63;;
10335;SDS011;5213;53.548;9.930;2023-05-10T15:27:32;6.70;;;5.93;;
10335;SDS011;5213;53.548;9.930;2023-05-10T15:29:58;6.78;;;5.78;;
10335;SDS011;5213;53.548;9.930;2023-05-10T15:32:24;6.25;;;5.65;;
10335;SDS011;5213;53.548;9.930;2023-05-10T15:34:50;6.07;;;5.47;;
10335;SDS011;5213;53.548;9.930;2023-05-10T15:37:16;6.43;;;5.70;;
10335;SDS011;5213;53.548;9.930;2023-05-10T15:39:43;6.25;;;5.75;;
10335;SDS011;5213;53.548;9.930;2023-05-10T15:42:09;6.22;;;5.60;;
10335;SDS011;5213;53.548;9.930;2023-05-10T15:44:35;6.90;;;6.30;;
10335;SDS011;5213;53.548;9.930;2023-05-10T15:47:03;6.90;;;6.00;;